Terminal Aerodrome Forecast
Issued by NWS Glasgow, MT

Home | Current Version | Previous Version | Text Only | Print | Product List | Glossary On
Versions: 1 2 3 4 5 6 7 8 9 10 11 12 13 14
260
FTUS45 KGGW 230520
TAFGGW
TAF
KGGW 230520Z 2306/2406 08011KT P6SM VCTS SCT100CB
     FM230900 28011KT P6SM VCTS SCT100CB WS020/31040KT
     FM231200 28013KT P6SM FEW200
     FM231800 29022G35KT P6SM FEW250
     FM240300 32008KT P6SM SCT200=

USA.gov is the U.S. government's official web portal to all federal, state and local government web resources and services.